N3368K ENDU-ENBO

Flight info

Callsign N3368K
Flight time 0h 58m
Altitude 8000
Route AMIMO DCT GEPTU
Aircraft BE36/L-BDFGLORY/S

Departure

Time 2026-05-04 14:40
Airport Bardufoss Airport (ENDU)

Arrival

Time 2026-05-04 15:38
Airport Bodø Airport (ENBO)
Time Latitude Longitude Altitude Speed Heading
2026-05-04 14:32 69.05915 18.52181 259 ft 0 kts 200°
2026-05-04 14:36 69.05915 18.52180 259 ft 1 kts 200°
2026-05-04 14:37 69.05906 18.52038 260 ft 14 kts 294°
2026-05-04 14:37 69.05952 18.51699 262 ft 23 kts 290°
2026-05-04 14:37 69.06029 18.51312 263 ft 21 kts 304°
2026-05-04 14:37 69.06014 18.51148 264 ft 0 kts 197°
2026-05-04 14:38 69.05988 18.51124 264 ft 11 kts 200°
2026-05-04 14:38 69.05913 18.51112 263 ft 0 kts 112°
2026-05-04 14:40 69.05842 18.51679 262 ft 72 kts 108°
2026-05-04 14:40 69.05656 18.53454 369 ft 112 kts 110°
2026-05-04 14:40 69.05377 18.55583 820 ft 115 kts 112°
2026-05-04 14:40 69.05085 18.57655 1365 ft 116 kts 118°
2026-05-04 14:41 69.04413 18.58710 1836 ft 120 kts 186°
2026-05-04 14:41 69.03619 18.57945 2379 ft 121 kts 197°
2026-05-04 14:41 69.02041 18.56249 3376 ft 124 kts 214°
2026-05-04 14:42 69.00823 18.52798 4295 ft 125 kts 226°
2026-05-04 14:42 69.00203 18.51075 4721 ft 126 kts 225°
2026-05-04 14:42 68.99577 18.49350 5142 ft 128 kts 225°
2026-05-04 14:43 68.98965 18.47528 5560 ft 129 kts 229°
2026-05-04 14:43 68.98359 18.45670 5954 ft 130 kts 229°
2026-05-04 14:43 68.97744 18.43805 6321 ft 131 kts 229°
2026-05-04 14:43 68.97128 18.41942 6677 ft 131 kts 228°
2026-05-04 14:44 68.96509 18.40075 7029 ft 131 kts 228°
2026-05-04 14:44 68.95887 18.38201 7375 ft 132 kts 227°
2026-05-04 14:44 68.95265 18.36333 7709 ft 132 kts 227°
2026-05-04 14:44 68.94640 18.34452 7995 ft 135 kts 227°
2026-05-04 14:45 68.93964 18.32419 8013 ft 152 kts 227°
2026-05-04 14:45 68.93215 18.30172 8013 ft 163 kts 227°
2026-05-04 14:45 68.92511 18.27629 8012 ft 168 kts 235°
2026-05-04 14:45 68.91815 18.24958 8012 ft 172 kts 234°
2026-05-04 14:46 68.91109 18.22280 8009 ft 172 kts 234°
2026-05-04 14:46 68.90403 18.19604 8004 ft 172 kts 234°
2026-05-04 14:46 68.89699 18.16933 8010 ft 172 kts 235°
2026-05-04 14:46 68.88992 18.14253 8002 ft 172 kts 234°
2026-05-04 14:47 68.88286 18.11577 8001 ft 171 kts 235°
2026-05-04 14:47 68.87589 18.08944 7997 ft 171 kts 234°
2026-05-04 14:47 68.86885 18.06284 7996 ft 170 kts 234°
2026-05-04 14:47 68.86153 18.03725 7995 ft 170 kts 224°
2026-05-04 14:48 68.85171 18.01918 7994 ft 170 kts 212°
2026-05-04 14:48 68.84164 18.00207 8003 ft 170 kts 213°
2026-05-04 14:48 68.83160 17.98494 8004 ft 169 kts 213°
2026-05-04 14:48 68.82154 17.96787 8004 ft 170 kts 213°
2026-05-04 14:49 68.81144 17.95078 8003 ft 170 kts 212°
2026-05-04 14:49 68.80137 17.93375 8003 ft 170 kts 212°
2026-05-04 14:49 68.79128 17.91670 8005 ft 170 kts 212°
2026-05-04 14:49 68.78118 17.89965 8005 ft 170 kts 213°
2026-05-04 14:50 68.77104 17.88256 8004 ft 171 kts 212°
2026-05-04 14:50 68.76089 17.86549 8002 ft 171 kts 212°
2026-05-04 14:50 68.75074 17.84841 8003 ft 171 kts 212°
2026-05-04 14:50 68.74056 17.83130 8004 ft 171 kts 212°
2026-05-04 14:51 68.73038 17.81421 8002 ft 171 kts 212°
2026-05-04 14:51 68.72022 17.79719 8004 ft 171 kts 212°
2026-05-04 14:51 68.71010 17.78024 8006 ft 170 kts 212°
2026-05-04 14:51 68.69995 17.76324 8006 ft 171 kts 212°
2026-05-04 14:52 68.68975 17.74619 8006 ft 171 kts 212°
2026-05-04 14:52 68.67958 17.72922 8005 ft 171 kts 212°
2026-05-04 14:52 68.66941 17.71226 8006 ft 171 kts 213°
2026-05-04 14:52 68.65924 17.69533 8005 ft 170 kts 212°
2026-05-04 14:53 68.64914 17.67853 8008 ft 170 kts 212°
2026-05-04 14:53 68.63904 17.66172 8007 ft 170 kts 212°
2026-05-04 14:53 68.62893 17.64492 8007 ft 170 kts 212°
2026-05-04 14:53 68.62224 17.63384 8007 ft 170 kts 212°
2026-05-04 14:54 68.60883 17.61161 8011 ft 170 kts 213°
2026-05-04 14:54 68.59869 17.59482 8010 ft 170 kts 213°
2026-05-04 14:54 68.58854 17.57803 8012 ft 170 kts 213°
2026-05-04 14:54 68.58168 17.56672 8011 ft 170 kts 213°
2026-05-04 14:55 68.56826 17.54456 8011 ft 170 kts 213°
2026-05-04 14:55 68.56141 17.53328 8012 ft 170 kts 213°
2026-05-04 14:55 68.55140 17.51678 8013 ft 171 kts 212°
2026-05-04 14:55 68.54104 17.49975 8012 ft 171 kts 212°
2026-05-04 14:56 68.53085 17.48301 8013 ft 172 kts 212°
2026-05-04 14:56 68.52074 17.46640 8013 ft 172 kts 213°
2026-05-04 14:56 68.51038 17.44942 8013 ft 171 kts 213°
2026-05-04 14:56 68.50018 17.43269 8013 ft 171 kts 213°
2026-05-04 14:57 68.49008 17.41618 8018 ft 171 kts 212°
2026-05-04 14:57 68.47988 17.39949 8018 ft 171 kts 213°
2026-05-04 14:57 68.46964 17.38279 8018 ft 171 kts 213°
2026-05-04 14:57 68.45945 17.36616 8018 ft 171 kts 213°
2026-05-04 14:58 68.44926 17.34955 8019 ft 171 kts 213°
2026-05-04 14:58 68.43908 17.33296 8018 ft 171 kts 213°
2026-05-04 14:58 68.42887 17.31638 8018 ft 171 kts 212°
2026-05-04 14:58 68.41865 17.29976 8018 ft 171 kts 212°
2026-05-04 14:59 68.40843 17.28321 8017 ft 171 kts 213°
2026-05-04 14:59 68.39825 17.26670 8019 ft 171 kts 213°
2026-05-04 14:59 68.37777 17.23354 8018 ft 171 kts 212°
2026-05-04 15:00 68.36755 17.21703 8024 ft 171 kts 212°
2026-05-04 15:00 68.35735 17.20056 8024 ft 171 kts 212°
2026-05-04 15:00 68.34726 17.18431 8028 ft 171 kts 212°
2026-05-04 15:01 68.32671 17.15121 8032 ft 172 kts 212°
2026-05-04 15:01 68.31646 17.13475 8033 ft 171 kts 212°
2026-05-04 15:01 68.30630 17.11844 8027 ft 172 kts 213°
2026-05-04 15:01 68.29595 17.10184 8027 ft 173 kts 213°
2026-05-04 15:02 68.28556 17.08518 8030 ft 174 kts 213°
2026-05-04 15:02 68.27510 17.06846 8030 ft 175 kts 213°
2026-05-04 15:02 68.26464 17.05173 8029 ft 175 kts 213°
2026-05-04 15:02 68.25422 17.03508 8030 ft 174 kts 213°
2026-05-04 15:03 68.24384 17.01852 8028 ft 173 kts 213°
2026-05-04 15:03 68.23347 17.00200 8030 ft 173 kts 213°
2026-05-04 15:03 68.22310 16.98551 8031 ft 173 kts 213°
2026-05-04 15:03 68.21270 16.96897 8030 ft 174 kts 212°
2026-05-04 15:04 68.20229 16.95244 8030 ft 173 kts 213°
2026-05-04 15:04 68.19192 16.93597 8030 ft 174 kts 213°
2026-05-04 15:04 68.18150 16.91944 8032 ft 174 kts 213°
2026-05-04 15:04 68.17103 16.90287 8032 ft 175 kts 213°
2026-05-04 15:05 68.16057 16.88631 8031 ft 174 kts 212°
2026-05-04 15:05 68.15009 16.86977 8033 ft 174 kts 212°
2026-05-04 15:05 68.13963 16.85324 8032 ft 175 kts 212°
2026-05-04 15:05 68.12918 16.83676 8048 ft 175 kts 212°
2026-05-04 15:06 68.11859 16.82005 8028 ft 177 kts 212°
2026-05-04 15:06 68.10802 16.80349 8023 ft 175 kts 212°
2026-05-04 15:06 68.09758 16.78709 8023 ft 173 kts 212°
2026-05-04 15:07 68.07676 16.75441 8025 ft 174 kts 212°
2026-05-04 15:07 68.06645 16.73824 8023 ft 174 kts 212°
2026-05-04 15:07 68.05586 16.72169 8024 ft 174 kts 212°
2026-05-04 15:07 68.04555 16.70556 8023 ft 174 kts 212°
2026-05-04 15:08 68.03514 16.68929 8024 ft 173 kts 212°
2026-05-04 15:08 68.02472 16.67305 8022 ft 173 kts 212°
2026-05-04 15:08 68.01429 16.65679 8023 ft 174 kts 213°
2026-05-04 15:08 68.00384 16.64052 8025 ft 174 kts 213°
2026-05-04 15:09 67.99332 16.62417 8022 ft 175 kts 213°
2026-05-04 15:09 67.98285 16.60790 8024 ft 174 kts 212°
2026-05-04 15:09 67.97237 16.59163 8024 ft 175 kts 213°
2026-05-04 15:10 67.95139 16.55912 8025 ft 175 kts 212°
2026-05-04 15:10 67.94105 16.54315 8025 ft 175 kts 212°
2026-05-04 15:10 67.91977 16.51027 8025 ft 175 kts 212°
2026-05-04 15:11 67.90922 16.49402 8027 ft 175 kts 212°
2026-05-04 15:11 67.89871 16.47780 8024 ft 175 kts 212°
2026-05-04 15:11 67.88815 16.46158 8024 ft 175 kts 212°
2026-05-04 15:11 67.87877 16.44182 8024 ft 172 kts 234°
2026-05-04 15:12 67.87323 16.41427 8024 ft 168 kts 256°
2026-05-04 15:12 67.87101 16.38396 8027 ft 167 kts 262°
2026-05-04 15:12 67.86880 16.35367 8030 ft 168 kts 261°
2026-05-04 15:12 67.86661 16.32331 8033 ft 168 kts 261°
2026-05-04 15:13 67.86443 16.29276 8030 ft 169 kts 261°
2026-05-04 15:13 67.86226 16.26264 8035 ft 169 kts 261°
2026-05-04 15:13 67.86005 16.23196 8034 ft 168 kts 261°
2026-05-04 15:13 67.85784 16.20140 8038 ft 170 kts 261°
2026-05-04 15:14 67.85562 16.17064 8035 ft 170 kts 261°
2026-05-04 15:14 67.85340 16.14012 8032 ft 168 kts 261°
2026-05-04 15:14 67.85120 16.10995 8034 ft 167 kts 260°
2026-05-04 15:14 67.84900 16.07979 8026 ft 166 kts 260°
2026-05-04 15:15 67.84682 16.05007 8032 ft 164 kts 261°
2026-05-04 15:15 67.84464 16.02034 8036 ft 165 kts 261°
2026-05-04 15:15 67.84244 15.99044 8031 ft 165 kts 260°
2026-05-04 15:16 67.83807 15.93126 8032 ft 164 kts 260°
2026-05-04 15:16 67.83583 15.90121 8032 ft 164 kts 261°
2026-05-04 15:16 67.83141 15.84182 8032 ft 165 kts 261°
2026-05-04 15:17 67.82922 15.81256 8035 ft 164 kts 261°
2026-05-04 15:17 67.82479 15.75348 8033 ft 164 kts 260°
2026-05-04 15:17 67.82256 15.72399 8034 ft 163 kts 260°
2026-05-04 15:18 67.82033 15.69441 8030 ft 163 kts 260°
2026-05-04 15:18 67.81811 15.66507 8036 ft 163 kts 260°
2026-05-04 15:18 67.81584 15.63575 8036 ft 161 kts 260°
2026-05-04 15:19 67.81144 15.57731 8039 ft 164 kts 260°
2026-05-04 15:19 67.80915 15.54746 8037 ft 165 kts 260°
2026-05-04 15:19 67.80455 15.48778 8038 ft 166 kts 260°
2026-05-04 15:20 67.80226 15.45808 8037 ft 165 kts 260°
2026-05-04 15:20 67.79996 15.42841 8030 ft 165 kts 260°
2026-05-04 15:20 67.79585 15.40002 8029 ft 168 kts 239°
2026-05-04 15:20 67.78766 15.37777 8029 ft 171 kts 217°
2026-05-04 15:21 67.77663 15.36562 8026 ft 175 kts 193°
2026-05-04 15:21 67.76440 15.36597 8027 ft 177 kts 173°
2026-05-04 15:21 67.73999 15.37574 8029 ft 177 kts 174°
2026-05-04 15:22 67.72776 15.38052 8034 ft 178 kts 174°
2026-05-04 15:22 67.71553 15.38533 8034 ft 177 kts 174°
2026-05-04 15:22 67.69111 15.39490 8037 ft 178 kts 174°
2026-05-04 15:23 67.67898 15.39960 8040 ft 179 kts 174°
2026-05-04 15:23 67.66680 15.39762 8036 ft 175 kts 199°
2026-05-04 15:23 67.65602 15.38390 8037 ft 171 kts 214°
2026-05-04 15:23 67.64587 15.36802 8035 ft 169 kts 213°
2026-05-04 15:24 67.62554 15.33658 8036 ft 170 kts 213°
2026-05-04 15:24 67.60515 15.30500 8032 ft 170 kts 213°
2026-05-04 15:25 67.59508 15.28937 8042 ft 167 kts 213°
2026-05-04 15:25 67.58494 15.27379 8048 ft 171 kts 213°
2026-05-04 15:25 67.57466 15.25792 8047 ft 172 kts 213°
2026-05-04 15:26 67.55382 15.22572 7994 ft 175 kts 213°
2026-05-04 15:26 67.54323 15.20954 7910 ft 178 kts 213°
2026-05-04 15:26 67.52152 15.17614 7605 ft 179 kts 213°
2026-05-04 15:27 67.51093 15.15996 7454 ft 173 kts 213°
2026-05-04 15:27 67.49048 15.12864 7164 ft 170 kts 213°
2026-05-04 15:28 67.46979 15.09692 6866 ft 174 kts 213°
2026-05-04 15:28 67.45930 15.08100 6715 ft 174 kts 213°
2026-05-04 15:28 67.43826 15.04900 6412 ft 174 kts 213°
2026-05-04 15:29 67.42781 15.03314 6276 ft 173 kts 213°
2026-05-04 15:30 67.38594 14.96960 5668 ft 172 kts 213°
2026-05-04 15:30 67.34957 14.95335 5072 ft 180 kts 187°
2026-05-04 15:31 67.32493 14.94787 4656 ft 177 kts 188°
2026-05-04 15:31 67.31259 14.94503 4329 ft 181 kts 187°
2026-05-04 15:32 67.28245 14.90185 3279 ft 166 kts 244°
2026-05-04 15:32 67.27862 14.84797 2995 ft 141 kts 271°
2026-05-04 15:33 67.27816 14.80013 2989 ft 128 kts 271°
2026-05-04 15:34 67.27762 14.73116 2995 ft 128 kts 271°
2026-05-04 15:34 67.27745 14.70796 2919 ft 131 kts 271°
2026-05-04 15:34 67.27706 14.65944 2486 ft 136 kts 271°
2026-05-04 15:35 67.27665 14.61514 2080 ft 113 kts 270°
2026-05-04 15:35 67.27647 14.59531 1893 ft 108 kts 271°
2026-05-04 15:35 67.27630 14.57614 1718 ft 105 kts 271°
2026-05-04 15:36 67.27598 14.53870 1378 ft 104 kts 271°
2026-05-04 15:36 67.27582 14.51992 1202 ft 105 kts 271°
2026-05-04 15:36 67.27561 14.50098 1020 ft 106 kts 266°
2026-05-04 15:37 67.27533 14.48287 840 ft 90 kts 272°
2026-05-04 15:37 67.27526 14.46694 693 ft 89 kts 270°
2026-05-04 15:37 67.27515 14.45076 552 ft 91 kts 269°
2026-05-04 15:37 67.27476 14.43441 406 ft 91 kts 260°
2026-05-04 15:38 67.27333 14.41893 319 ft 88 kts 258°
2026-05-04 15:38 67.27225 14.40338 171 ft 88 kts 258°
2026-05-04 15:38 67.27114 14.38881 46 ft 71 kts 257°
2026-05-04 15:38 67.27039 14.37960 45 ft 39 kts 257°
2026-05-04 15:39 67.26989 14.37349 40 ft 31 kts 257°
2026-05-04 15:39 67.26962 14.37010 39 ft 27 kts 259°
2026-05-04 15:39 67.26982 14.36488 37 ft 9 kts 349°
2026-05-04 15:40 67.27033 14.36302 37 ft 13 kts 257°
2026-05-04 15:40 67.27023 14.36137 36 ft 14 kts 261°
2026-05-04 15:40 67.27014 14.35900 35 ft 12 kts 289°
2026-05-04 15:40 67.27074 14.35828 35 ft 11 kts
2026-05-04 15:41 67.27135 14.35895 35 ft 0 kts 27°